sensor_id;sensor_type;location;lat;lon;timestamp;pressure;altitude;pressure_sealevel;temperature;humidity
75886;BME280;64561;44.018;10.144;2022-11-20T00:01:21;100680.94;;;12.17;84.64
75886;BME280;64561;44.018;10.144;2022-11-20T00:03:49;100675.66;;;12.07;84.37
75886;BME280;64561;44.018;10.144;2022-11-20T00:06:18;100668.69;;;11.99;84.51
75886;BME280;64561;44.018;10.144;2022-11-20T00:08:46;100677.28;;;12.01;84.55
75886;BME280;64561;44.018;10.144;2022-11-20T00:11:20;100679.00;;;12.02;84.29
75886;BME280;64561;44.018;10.144;2022-11-20T00:13:50;100678.13;;;12.01;84.42
75886;BME280;64561;44.018;10.144;2022-11-20T00:16:20;100684.97;;;12.02;84.82
75886;BME280;64561;44.018;10.144;2022-11-20T00:18:48;100673.81;;;11.99;84.44
75886;BME280;64561;44.018;10.144;2022-11-20T00:21:18;100680.59;;;11.95;84.34
75886;BME280;64561;44.018;10.144;2022-11-20T00:23:49;100678.00;;;11.92;84.42
75886;BME280;64561;44.018;10.144;2022-11-20T00:26:18;100688.84;;;11.79;85.28
75886;BME280;64561;44.018;10.144;2022-11-20T00:28:54;100689.66;;;11.76;84.97
75886;BME280;64561;44.018;10.144;2022-11-20T00:31:21;100688.81;;;11.77;85.20
75886;BME280;64561;44.018;10.144;2022-11-20T00:33:48;100692.34;;;11.82;84.47
75886;BME280;64561;44.018;10.144;2022-11-20T00:36:20;100685.50;;;11.84;84.73
75886;BME280;64561;44.018;10.144;2022-11-20T00:38:51;100683.88;;;11.86;84.64
75886;BME280;64561;44.018;10.144;2022-11-20T00:41:18;100683.94;;;11.91;84.64
75886;BME280;64561;44.018;10.144;2022-11-20T00:43:45;100687.34;;;11.88;84.72
75886;BME280;64561;44.018;10.144;2022-11-20T00:46:17;100693.34;;;11.90;84.50
75886;BME280;64561;44.018;10.144;2022-11-20T00:48:44;100685.41;;;11.77;84.07
75886;BME280;64561;44.018;10.144;2022-11-20T00:51:17;100686.00;;;11.62;84.64
75886;BME280;64561;44.018;10.144;2022-11-20T00:53:44;100692.53;;;11.46;85.05
75886;BME280;64561;44.018;10.144;2022-11-20T00:56:13;100686.50;;;11.42;84.67
75886;BME280;64561;44.018;10.144;2022-11-20T00:58:43;100683.13;;;11.43;83.99
75886;BME280;64561;44.018;10.144;2022-11-20T01:01:11;100688.22;;;11.42;83.60
75886;BME280;64561;44.018;10.144;2022-11-20T01:03:41;100691.69;;;11.45;83.44
75886;BME280;64561;44.018;10.144;2022-11-20T01:08:38;100710.72;;;11.58;83.53
75886;BME280;64561;44.018;10.144;2022-11-20T01:11:09;100710.34;;;11.40;83.75
75886;BME280;64561;44.018;10.144;2022-11-20T01:13:37;100711.72;;;11.19;84.50
75886;BME280;64561;44.018;10.144;2022-11-20T01:16:04;100722.50;;;11.05;84.29
75886;BME280;64561;44.018;10.144;2022-11-20T01:18:31;100722.50;;;11.05;84.03
75886;BME280;64561;44.018;10.144;2022-11-20T01:21:03;100718.38;;;11.11;84.36
75886;BME280;64561;44.018;10.144;2022-11-20T01:23:33;100729.59;;;11.18;83.80
75886;BME280;64561;44.018;10.144;2022-11-20T01:26:01;100729.66;;;11.21;84.51
75886;BME280;64561;44.018;10.144;2022-11-20T01:28:29;100733.31;;;11.34;84.48
75886;BME280;64561;44.018;10.144;2022-11-20T01:30:56;100729.19;;;11.42;84.24
75886;BME280;64561;44.018;10.144;2022-11-20T01:33:23;100737.63;;;11.36;83.54
75886;BME280;64561;44.018;10.144;2022-11-20T01:35:50;100735.91;;;11.35;84.04
75886;BME280;64561;44.018;10.144;2022-11-20T01:38:17;100736.81;;;11.39;83.89
75886;BME280;64561;44.018;10.144;2022-11-20T01:40:44;100730.13;;;11.45;83.98
75886;BME280;64561;44.018;10.144;2022-11-20T01:43:18;100730.13;;;11.45;83.71
75886;BME280;64561;44.018;10.144;2022-11-20T01:51:00;100752.44;;;11.51;82.36
75886;BME280;64561;44.018;10.144;2022-11-20T01:53:32;100744.56;;;11.40;82.55
75886;BME280;64561;44.018;10.144;2022-11-20T01:56:03;100757.56;;;11.09;83.32
75886;BME280;64561;44.018;10.144;2022-11-20T01:58:34;100757.13;;;10.87;84.36
75886;BME280;64561;44.018;10.144;2022-11-20T02:01:03;100759.50;;;10.80;83.96
75886;BME280;64561;44.018;10.144;2022-11-20T02:03:30;100761.28;;;10.82;83.83
75886;BME280;64561;44.018;10.144;2022-11-20T02:06:31;100773.22;;;10.82;84.28
75886;BME280;64561;44.018;10.144;2022-11-20T02:09:01;100778.06;;;10.69;84.32
75886;BME280;64561;44.018;10.144;2022-11-20T02:11:30;100770.59;;;10.79;84.70
75886;BME280;64561;44.018;10.144;2022-11-20T02:13:58;100770.91;;;10.92;84.61
75886;BME280;64561;44.018;10.144;2022-11-20T02:16:28;100770.84;;;10.91;84.07
75886;BME280;64561;44.018;10.144;2022-11-20T02:18:58;100769.16;;;10.91;84.16
75886;BME280;64561;44.018;10.144;2022-11-20T02:21:49;100766.69;;;10.96;84.33
75886;BME280;64561;44.018;10.144;2022-11-20T02:24:19;100766.84;;;11.02;84.13
75886;BME280;64561;44.018;10.144;2022-11-20T02:27:10;100773.53;;;10.97;83.68
75886;BME280;64561;44.018;10.144;2022-11-20T02:29:42;100771.84;;;10.97;83.67
75886;BME280;64561;44.018;10.144;2022-11-20T02:32:31;100762.56;;;11.03;83.80
75886;BME280;64561;44.018;10.144;2022-11-20T02:37:38;100754.69;;;10.93;83.53
75886;BME280;64561;44.018;10.144;2022-11-20T02:40:07;100757.97;;;10.86;83.94
75886;BME280;64561;44.018;10.144;2022-11-20T02:42:35;100753.59;;;10.82;83.57
75886;BME280;64561;44.018;10.144;2022-11-20T02:45:03;100762.19;;;10.86;83.48
75886;BME280;64561;44.018;10.144;2022-11-20T02:47:30;100759.63;;;10.84;83.72
75886;BME280;64561;44.018;10.144;2022-11-20T02:49:58;100758.03;;;10.89;83.06
75886;BME280;64561;44.018;10.144;2022-11-20T02:52:25;100763.03;;;10.83;82.47
75886;BME280;64561;44.018;10.144;2022-11-20T02:54:52;100754.56;;;10.87;83.38
75886;BME280;64561;44.018;10.144;2022-11-20T02:57:19;100758.91;;;10.91;83.53
75886;BME280;64561;44.018;10.144;2022-11-20T02:59:46;100753.84;;;10.94;83.25
75886;BME280;64561;44.018;10.144;2022-11-20T03:02:13;100757.38;;;10.99;82.38
75886;BME280;64561;44.018;10.144;2022-11-20T03:04:39;100750.56;;;11.00;82.03
75886;BME280;64561;44.018;10.144;2022-11-20T03:07:07;100746.72;;;10.80;82.47
75886;BME280;64561;44.018;10.144;2022-11-20T03:09:34;100751.53;;;10.66;82.80
75886;BME280;64561;44.018;10.144;2022-11-20T03:12:01;100745.38;;;10.58;83.42
75886;BME280;64561;44.018;10.144;2022-11-20T03:14:28;100744.47;;;10.54;83.81
75886;BME280;64561;44.018;10.144;2022-11-20T03:16:55;100747.72;;;10.47;84.05
75886;BME280;64561;44.018;10.144;2022-11-20T03:19:22;100749.44;;;10.49;83.91
75886;BME280;64561;44.018;10.144;2022-11-20T03:21:49;100744.31;;;10.48;84.19
75886;BME280;64561;44.018;10.144;2022-11-20T03:24:16;100739.22;;;10.49;83.53
75886;BME280;64561;44.018;10.144;2022-11-20T03:26:43;100745.25;;;10.51;83.34
75886;BME280;64561;44.018;10.144;2022-11-20T03:29:09;100754.44;;;10.43;84.57
75886;BME280;64561;44.018;10.144;2022-11-20T03:31:38;100748.16;;;10.30;84.73
75886;BME280;64561;44.018;10.144;2022-11-20T03:34:10;100752.91;;;10.17;85.49
75886;BME280;64561;44.018;10.144;2022-11-20T03:36:38;100757.22;;;10.18;85.09
75886;BME280;64561;44.018;10.144;2022-11-20T03:39:06;100755.81;;;10.29;84.64
75886;BME280;64561;44.018;10.144;2022-11-20T03:41:36;100762.66;;;10.30;84.17
75886;BME280;64561;44.018;10.144;2022-11-20T03:44:05;100756.75;;;10.33;84.13
75886;BME280;64561;44.018;10.144;2022-11-20T03:46:33;100746.44;;;10.29;82.98
75886;BME280;64561;44.018;10.144;2022-11-20T03:49:00;100747.25;;;10.28;83.68
75886;BME280;64561;44.018;10.144;2022-11-20T03:51:29;100750.81;;;10.34;82.81
75886;BME280;64561;44.018;10.144;2022-11-20T03:53:58;100747.97;;;10.23;83.51
75886;BME280;64561;44.018;10.144;2022-11-20T03:56:28;100747.97;;;10.23;83.34
75886;BME280;64561;44.018;10.144;2022-11-20T03:58:55;100753.22;;;10.27;83.52
75886;BME280;64561;44.018;10.144;2022-11-20T04:01:25;100750.59;;;10.26;82.82
75886;BME280;64561;44.018;10.144;2022-11-20T04:03:53;100746.22;;;10.22;82.73
75886;BME280;64561;44.018;10.144;2022-11-20T04:06:26;100756.22;;;10.11;83.30
75886;BME280;64561;44.018;10.144;2022-11-20T04:08:57;100757.72;;;10.04;83.11
75886;BME280;64561;44.018;10.144;2022-11-20T04:11:29;100754.28;;;10.02;82.96
75886;BME280;64561;44.018;10.144;2022-11-20T04:13:58;100757.00;;;10.08;83.96
75886;BME280;64561;44.018;10.144;2022-11-20T04:16:35;100753.75;;;10.16;83.80
75886;BME280;64561;44.018;10.144;2022-11-20T04:19:04;100742.88;;;10.24;83.13
75886;BME280;64561;44.018;10.144;2022-11-20T04:21:32;100744.69;;;10.28;82.11
75886;BME280;64561;44.018;10.144;2022-11-20T04:23:59;100747.13;;;10.24;82.66
75886;BME280;64561;44.018;10.144;2022-11-20T04:26:27;100748.31;;;10.02;83.27
75886;BME280;64561;44.018;10.144;2022-11-20T04:28:54;100749.75;;;9.92;83.45
75886;BME280;64561;44.018;10.144;2022-11-20T04:31:27;100762.13;;;9.77;85.39
75886;BME280;64561;44.018;10.144;2022-11-20T04:33:54;100762.19;;;9.78;84.83
75886;BME280;64561;44.018;10.144;2022-11-20T04:36:23;100766.91;;;9.96;84.47
75886;BME280;64561;44.018;10.144;2022-11-20T04:38:52;100778.09;;;10.01;84.29
75886;BME280;64561;44.018;10.144;2022-11-20T04:41:26;100766.91;;;9.96;84.10
75886;BME280;64561;44.018;10.144;2022-11-20T04:43:55;100768.56;;;9.94;83.73
75886;BME280;64561;44.018;10.144;2022-11-20T04:46:27;100778.84;;;9.97;83.28
75886;BME280;64561;44.018;10.144;2022-11-20T04:48:54;100761.88;;;9.99;82.99
75886;BME280;64561;44.018;10.144;2022-11-20T04:51:21;100778.47;;;10.15;83.04
75886;BME280;64561;44.018;10.144;2022-11-20T04:53:48;100782.63;;;10.12;82.05
75886;BME280;64561;44.018;10.144;2022-11-20T04:56:15;100779.63;;;9.95;82.30
75886;BME280;64561;44.018;10.144;2022-11-20T04:58:42;100777.31;;;9.71;83.59
75886;BME280;64561;44.018;10.144;2022-11-20T05:03:41;100791.22;;;9.50;84.60
75886;BME280;64561;44.018;10.144;2022-11-20T05:06:11;100797.34;;;9.55;84.50
75886;BME280;64561;44.018;10.144;2022-11-20T05:08:39;100804.53;;;9.69;84.51
75886;BME280;64561;44.018;10.144;2022-11-20T05:11:32;100811.53;;;9.76;83.85
75886;BME280;64561;44.018;10.144;2022-11-20T05:13:59;100816.66;;;9.77;83.16
75886;BME280;64561;44.018;10.144;2022-11-20T05:16:26;100814.94;;;9.76;82.41
75886;BME280;64561;44.018;10.144;2022-11-20T05:18:54;100822.03;;;9.56;83.16
75886;BME280;64561;44.018;10.144;2022-11-20T05:21:21;100814.34;;;9.55;83.50
75886;BME280;64561;44.018;10.144;2022-11-20T05:23:48;100821.19;;;9.56;83.27
75886;BME280;64561;44.018;10.144;2022-11-20T05:26:17;100835.06;;;9.66;83.61
75886;BME280;64561;44.018;10.144;2022-11-20T05:28:45;100838.81;;;9.47;83.92
75886;BME280;64561;44.018;10.144;2022-11-20T05:31:17;100841.19;;;9.41;84.12
75886;BME280;64561;44.018;10.144;2022-11-20T05:33:52;100849.09;;;9.48;83.91
75886;BME280;64561;44.018;10.144;2022-11-20T05:36:18;100840.00;;;9.58;83.48
75886;BME280;64561;44.018;10.144;2022-11-20T05:38:52;100840.94;;;9.61;82.90
75886;BME280;64561;44.018;10.144;2022-11-20T05:41:26;100851.63;;;9.48;82.85
75886;BME280;64561;44.018;10.144;2022-11-20T05:43:53;100849.44;;;9.32;84.56
75886;BME280;64561;44.018;10.144;2022-11-20T05:46:20;100850.75;;;9.18;85.55
75886;BME280;64561;44.018;10.144;2022-11-20T05:48:54;100845.69;;;9.19;85.30
75886;BME280;64561;44.018;10.144;2022-11-20T05:51:21;100850.09;;;9.25;84.81
75886;BME280;64561;44.018;10.144;2022-11-20T05:53:48;100854.63;;;9.35;84.85
75886;BME280;64561;44.018;10.144;2022-11-20T05:56:17;100858.03;;;9.34;83.40
75886;BME280;64561;44.018;10.144;2022-11-20T05:58:45;100854.16;;;9.18;83.74
75886;BME280;64561;44.018;10.144;2022-11-20T06:01:23;100856.84;;;9.23;84.47
75886;BME280;64561;44.018;10.144;2022-11-20T06:03:52;100855.94;;;9.21;83.42
75886;BME280;64561;44.018;10.144;2022-11-20T06:06:24;100862.03;;;9.26;83.74
75886;BME280;64561;44.018;10.144;2022-11-20T06:08:52;100865.94;;;9.43;83.99
75886;BME280;64561;44.018;10.144;2022-11-20T06:11:19;100861.72;;;9.44;83.12
75886;BME280;64561;44.018;10.144;2022-11-20T06:13:46;100862.56;;;9.44;82.76
75886;BME280;64561;44.018;10.144;2022-11-20T06:16:15;100864.16;;;9.39;82.82
75886;BME280;64561;44.018;10.144;2022-11-20T06:18:42;100854.56;;;9.32;82.40
75886;BME280;64561;44.018;10.144;2022-11-20T06:21:12;100862.66;;;9.47;83.18
75886;BME280;64561;44.018;10.144;2022-11-20T06:23:40;100863.56;;;9.49;82.87
75886;BME280;64561;44.018;10.144;2022-11-20T06:26:12;100866.91;;;9.47;82.57
75886;BME280;64561;44.018;10.144;2022-11-20T06:28:42;100877.28;;;9.53;81.90
75886;BME280;64561;44.018;10.144;2022-11-20T06:31:12;100870.03;;;9.36;81.92
75886;BME280;64561;44.018;10.144;2022-11-20T06:33:41;100871.44;;;9.27;82.81
75886;BME280;64561;44.018;10.144;2022-11-20T06:36:11;100876.03;;;9.10;83.08
75886;BME280;64561;44.018;10.144;2022-11-20T06:38:38;100870.00;;;9.08;83.09
75886;BME280;64561;44.018;10.144;2022-11-20T06:41:07;100880.84;;;9.01;82.98
75886;BME280;64561;44.018;10.144;2022-11-20T06:43:34;100878.44;;;9.05;83.11
75886;BME280;64561;44.018;10.144;2022-11-20T06:46:00;100888.72;;;8.81;83.44
75886;BME280;64561;44.018;10.144;2022-11-20T06:48:28;100893.25;;;8.90;83.69
75886;BME280;64561;44.018;10.144;2022-11-20T06:50:56;100894.81;;;8.85;84.29
75886;BME280;64561;44.018;10.144;2022-11-20T06:53:23;100903.38;;;8.87;84.28
75886;BME280;64561;44.018;10.144;2022-11-20T06:55:51;100907.41;;;8.80;84.98
75886;BME280;64561;44.018;10.144;2022-11-20T06:58:18;100912.41;;;8.77;84.83
75886;BME280;64561;44.018;10.144;2022-11-20T07:00:45;100910.63;;;8.75;86.15
75886;BME280;64561;44.018;10.144;2022-11-20T07:03:12;100912.03;;;8.65;86.81
75886;BME280;64561;44.018;10.144;2022-11-20T07:05:40;100925.84;;;8.72;87.04
75886;BME280;64561;44.018;10.144;2022-11-20T07:08:07;100926.97;;;8.80;87.27
75886;BME280;64561;44.018;10.144;2022-11-20T07:10:34;100931.44;;;8.87;87.18
75886;BME280;64561;44.018;10.144;2022-11-20T07:13:01;100940.59;;;9.07;86.87
75886;BME280;64561;44.018;10.144;2022-11-20T07:15:28;100947.63;;;9.14;87.05
75886;BME280;64561;44.018;10.144;2022-11-20T07:17:57;100940.66;;;9.09;87.49
75886;BME280;64561;44.018;10.144;2022-11-20T07:20:24;100952.91;;;9.19;87.14
75886;BME280;64561;44.018;10.144;2022-11-20T07:22:55;100952.16;;;9.23;87.94
75886;BME280;64561;44.018;10.144;2022-11-20T07:25:22;100962.53;;;9.28;87.92
75886;BME280;64561;44.018;10.144;2022-11-20T07:27:49;100966.22;;;9.37;87.22
75886;BME280;64561;44.018;10.144;2022-11-20T07:30:17;100975.84;;;9.45;87.28
75886;BME280;64561;44.018;10.144;2022-11-20T07:32:47;100975.38;;;9.58;87.46
75886;BME280;64561;44.018;10.144;2022-11-20T07:35:17;100986.13;;;9.76;87.86
75886;BME280;64561;44.018;10.144;2022-11-20T07:37:44;100981.38;;;9.89;87.69
75886;BME280;64561;44.018;10.144;2022-11-20T07:40:12;100984.13;;;9.95;87.53
75886;BME280;64561;44.018;10.144;2022-11-20T07:42:53;100975.69;;;9.97;87.81
75886;BME280;64561;44.018;10.144;2022-11-20T07:45:22;100983.56;;;10.05;87.32
75886;BME280;64561;44.018;10.144;2022-11-20T07:47:50;100990.63;;;10.14;87.33
75886;BME280;64561;44.018;10.144;2022-11-20T07:50:18;100979.88;;;10.25;86.92
75886;BME280;64561;44.018;10.144;2022-11-20T07:52:45;100984.31;;;10.31;87.21
75886;BME280;64561;44.018;10.144;2022-11-20T07:55:12;100975.16;;;10.39;87.10
75886;BME280;64561;44.018;10.144;2022-11-20T07:57:39;100987.38;;;10.49;87.23
75886;BME280;64561;44.018;10.144;2022-11-20T08:00:08;100981.59;;;10.57;86.85
75886;BME280;64561;44.018;10.144;2022-11-20T08:02:39;100988.59;;;10.62;86.80
75886;BME280;64561;44.018;10.144;2022-11-20T08:05:08;100997.28;;;10.69;86.48
75886;BME280;64561;44.018;10.144;2022-11-20T08:07:36;100993.94;;;10.71;86.37
75886;BME280;64561;44.018;10.144;2022-11-20T08:10:04;100990.59;;;10.74;86.39
75886;BME280;64561;44.018;10.144;2022-11-20T08:12:31;100994.97;;;10.80;85.74
75886;BME280;64561;44.018;10.144;2022-11-20T08:15:17;100992.47;;;10.81;83.56
75886;BME280;64561;44.018;10.144;2022-11-20T08:17:44;100992.56;;;10.84;84.76
75886;BME280;64561;44.018;10.144;2022-11-20T08:20:31;101000.38;;;10.90;85.06
75886;BME280;64561;44.018;10.144;2022-11-20T08:23:02;100995.41;;;10.96;84.53
75886;BME280;64561;44.018;10.144;2022-11-20T08:25:30;101002.50;;;11.07;84.28
75886;BME280;64561;44.018;10.144;2022-11-20T08:28:01;101001.84;;;11.15;84.37
75886;BME280;64561;44.018;10.144;2022-11-20T08:30:37;101004.69;;;11.28;84.86
75886;BME280;64561;44.018;10.144;2022-11-20T08:33:09;101004.06;;;11.36;84.73
75886;BME280;64561;44.018;10.144;2022-11-20T08:35:36;101000.13;;;11.51;84.46
75886;BME280;64561;44.018;10.144;2022-11-20T08:38:05;101005.56;;;11.64;81.14
75886;BME280;64561;44.018;10.144;2022-11-20T08:40:32;101003.16;;;11.72;81.50
75886;BME280;64561;44.018;10.144;2022-11-20T08:42:59;101008.63;;;11.86;81.09
75886;BME280;64561;44.018;10.144;2022-11-20T08:45:27;101006.28;;;11.95;80.71
75886;BME280;64561;44.018;10.144;2022-11-20T08:48:01;101008.25;;;12.08;80.52
75886;BME280;64561;44.018;10.144;2022-11-20T08:50:33;101018.63;;;12.13;79.45
75886;BME280;64561;44.018;10.144;2022-11-20T08:53:04;101016.00;;;12.11;77.34
75886;BME280;64561;44.018;10.144;2022-11-20T08:55:31;101017.25;;;12.30;77.22
75886;BME280;64561;44.018;10.144;2022-11-20T08:58:03;101024.09;;;12.31;74.16
75886;BME280;64561;44.018;10.144;2022-11-20T09:00:30;101025.63;;;12.22;74.64
75886;BME280;64561;44.018;10.144;2022-11-20T09:02:59;101027.28;;;12.20;73.12
75886;BME280;64561;44.018;10.144;2022-11-20T09:05:27;101038.22;;;12.11;73.38
75886;BME280;64561;44.018;10.144;2022-11-20T09:07:58;101038.09;;;12.05;74.24
75886;BME280;64561;44.018;10.144;2022-11-20T09:10:28;101037.25;;;12.04;74.11
75886;BME280;64561;44.018;10.144;2022-11-20T09:12:55;101043.22;;;12.05;75.50
75886;BME280;64561;44.018;10.144;2022-11-20T09:15:24;101039.28;;;12.21;74.98
75886;BME280;64561;44.018;10.144;2022-11-20T09:17:55;101047.50;;;12.47;74.79
75886;BME280;64561;44.018;10.144;2022-11-20T09:20:22;101044.94;;;12.48;72.37
75886;BME280;64561;44.018;10.144;2022-11-20T09:22:49;101044.03;;;12.45;72.05
75886;BME280;64561;44.018;10.144;2022-11-20T09:25:16;101052.53;;;12.41;73.50
75886;BME280;64561;44.018;10.144;2022-11-20T09:27:43;101055.38;;;12.56;73.95
75886;BME280;64561;44.018;10.144;2022-11-20T09:30:15;101056.53;;;12.70;74.52
75886;BME280;64561;44.018;10.144;2022-11-20T09:32:42;101050.94;;;12.93;72.72
75886;BME280;64561;44.018;10.144;2022-11-20T09:35:12;101057.97;;;13.03;70.90
75886;BME280;64561;44.018;10.144;2022-11-20T09:37:39;101058.75;;;12.99;70.48
75886;BME280;64561;44.018;10.144;2022-11-20T09:40:06;101061.38;;;13.02;73.56
75886;BME280;64561;44.018;10.144;2022-11-20T09:43:11;101070.22;;;13.18;72.43
75886;BME280;64561;44.018;10.144;2022-11-20T09:45:54;101068.56;;;13.21;71.68
75886;BME280;64561;44.018;10.144;2022-11-20T09:48:29;101067.06;;;13.33;70.92
75886;BME280;64561;44.018;10.144;2022-11-20T09:53:59;101063.81;;;13.44;67.14
75886;BME280;64561;44.018;10.144;2022-11-20T09:56:37;101067.03;;;13.31;68.92
75886;BME280;64561;44.018;10.144;2022-11-20T09:59:07;101063.81;;;13.44;69.78
75886;BME280;64561;44.018;10.144;2022-11-20T10:01:39;101062.03;;;13.39;69.56
75886;BME280;64561;44.018;10.144;2022-11-20T10:04:18;101061.81;;;13.26;71.51
75886;BME280;64561;44.018;10.144;2022-11-20T10:07:06;101061.19;;;13.40;71.83
75886;BME280;64561;44.018;10.144;2022-11-20T10:09:55;101056.16;;;13.47;71.37
75886;BME280;64561;44.018;10.144;2022-11-20T10:20:24;101063.47;;;13.76;71.38
75886;BME280;64561;44.018;10.144;2022-11-20T10:31:17;101047.91;;;13.68;74.46
75886;BME280;64561;44.018;10.144;2022-11-20T10:33:52;101038.00;;;13.93;73.47
75886;BME280;64561;44.018;10.144;2022-11-20T10:36:42;101042.09;;;13.82;70.93
75886;BME280;64561;44.018;10.144;2022-11-20T10:39:22;101028.34;;;13.78;71.78
75886;BME280;64561;44.018;10.144;2022-11-20T10:41:52;101032.00;;;13.95;73.23
75886;BME280;64561;44.018;10.144;2022-11-20T10:44:22;101026.88;;;13.99;73.29
75886;BME280;64561;44.018;10.144;2022-11-20T10:47:20;101022.81;;;14.14;74.22
75886;BME280;64561;44.018;10.144;2022-11-20T10:49:51;101026.47;;;14.33;74.20
75886;BME280;64561;44.018;10.144;2022-11-20T10:52:42;101023.28;;;14.51;72.14
75886;BME280;64561;44.018;10.144;2022-11-20T10:58:18;101013.09;;;14.65;72.29
75886;BME280;64561;44.018;10.144;2022-11-20T11:00:46;101006.25;;;14.66;71.13
75886;BME280;64561;44.018;10.144;2022-11-20T11:03:26;100997.66;;;14.65;70.81
75886;BME280;64561;44.018;10.144;2022-11-20T11:06:03;100992.38;;;14.51;71.11
75886;BME280;64561;44.018;10.144;2022-11-20T11:08:37;100990.63;;;14.50;72.34
75886;BME280;64561;44.018;10.144;2022-11-20T11:11:40;100995.94;;;14.62;72.81
75886;BME280;64561;44.018;10.144;2022-11-20T11:14:07;100991.75;;;14.77;71.69
75886;BME280;64561;44.018;10.144;2022-11-20T11:16:34;100989.19;;;14.80;70.72
75886;BME280;64561;44.018;10.144;2022-11-20T11:19:12;100988.38;;;14.82;69.86
75886;BME280;64561;44.018;10.144;2022-11-20T11:21:47;100989.16;;;14.74;71.34
75886;BME280;64561;44.018;10.144;2022-11-20T11:24:26;100980.66;;;14.82;70.17
75886;BME280;64561;44.018;10.144;2022-11-20T11:27:14;100978.03;;;14.78;70.54
75886;BME280;64561;44.018;10.144;2022-11-20T11:29:45;100984.81;;;14.70;70.39
75886;BME280;64561;44.018;10.144;2022-11-20T11:32:13;100983.91;;;14.64;71.37
75886;BME280;64561;44.018;10.144;2022-11-20T11:34:41;100984.81;;;14.67;71.37
75886;BME280;64561;44.018;10.144;2022-11-20T11:37:16;100985.69;;;14.69;69.35
75886;BME280;64561;44.018;10.144;2022-11-20T11:39:44;100981.16;;;14.48;70.04
75886;BME280;64561;44.018;10.144;2022-11-20T11:42:20;100978.56;;;14.49;70.62
75886;BME280;64561;44.018;10.144;2022-11-20T11:44:47;100973.53;;;14.55;70.65
75886;BME280;64561;44.018;10.144;2022-11-20T11:55:09;100973.03;;;14.96;69.84
75886;BME280;64561;44.018;10.144;2022-11-20T11:57:52;100971.41;;;15.04;70.22
75886;BME280;64561;44.018;10.144;2022-11-20T12:00:22;100977.44;;;15.09;69.42
75886;BME280;64561;44.018;10.144;2022-11-20T12:02:58;100975.75;;;15.13;69.97
75886;BME280;64561;44.018;10.144;2022-11-20T12:05:48;100974.88;;;15.11;69.79
75886;BME280;64561;44.018;10.144;2022-11-20T12:08:46;100968.97;;;15.26;70.13
75886;BME280;64561;44.018;10.144;2022-11-20T12:11:43;100965.53;;;15.27;70.54
75886;BME280;64561;44.018;10.144;2022-11-20T12:14:16;100971.59;;;15.33;69.83
75886;BME280;64561;44.018;10.144;2022-11-20T12:16:46;100972.44;;;15.31;69.83
75886;BME280;64561;44.018;10.144;2022-11-20T12:19:14;100969.84;;;15.31;69.77
75886;BME280;64561;44.018;10.144;2022-11-20T12:40:38;100976.69;;;15.23;70.26
75886;BME280;64561;44.018;10.144;2022-11-20T12:48:50;100977.63;;;15.37;68.47
75886;BME280;64561;44.018;10.144;2022-11-20T12:56:51;100960.41;;;15.33;67.16
75886;BME280;64561;44.018;10.144;2022-11-20T13:08:27;100951.72;;;15.17;68.81
75886;BME280;64561;44.018;10.144;2022-11-20T13:11:00;100949.22;;;15.26;68.13
75886;BME280;64561;44.018;10.144;2022-11-20T13:16:38;100943.00;;;14.98;67.36
75886;BME280;64561;44.018;10.144;2022-11-20T13:19:11;100941.31;;;15.06;69.30
75886;BME280;64561;44.018;10.144;2022-11-20T13:21:43;100942.28;;;15.21;66.36
75886;BME280;64561;44.018;10.144;2022-11-20T13:26:46;100946.38;;;14.94;67.57
75886;BME280;64561;44.018;10.144;2022-11-20T13:29:17;100944.69;;;14.93;67.16
75886;BME280;64561;44.018;10.144;2022-11-20T13:31:46;100942.19;;;15.05;66.56
75886;BME280;64561;44.018;10.144;2022-11-20T13:34:25;100943.94;;;15.13;65.54
75886;BME280;64561;44.018;10.144;2022-11-20T13:36:54;100942.22;;;15.12;66.12
75886;BME280;64561;44.018;10.144;2022-11-20T13:39:30;100943.19;;;15.27;66.80
75886;BME280;64561;44.018;10.144;2022-11-20T13:42:23;100941.47;;;15.28;65.52
75886;BME280;64561;44.018;10.144;2022-11-20T13:44:54;100935.47;;;15.29;66.08
75886;BME280;64561;44.018;10.144;2022-11-20T13:47:28;100947.59;;;15.42;66.47
75886;BME280;64561;44.018;10.144;2022-11-20T13:49:57;100940.75;;;15.49;65.93
75886;BME280;64561;44.018;10.144;2022-11-20T13:52:43;100940.75;;;15.47;65.32
75886;BME280;64561;44.018;10.144;2022-11-20T14:00:51;100941.53;;;15.36;64.13
75886;BME280;64561;44.018;10.144;2022-11-20T14:03:22;100949.22;;;15.29;65.52
75886;BME280;64561;44.018;10.144;2022-11-20T14:06:26;100949.97;;;15.16;66.46
75886;BME280;64561;44.018;10.144;2022-11-20T14:08:54;100949.06;;;15.05;67.12
75886;BME280;64561;44.018;10.144;2022-11-20T14:11:27;100949.09;;;15.13;66.03
75886;BME280;64561;44.018;10.144;2022-11-20T14:14:01;100945.66;;;15.07;65.62
75886;BME280;64561;44.018;10.144;2022-11-20T14:16:34;100946.50;;;15.05;65.90
75886;BME280;64561;44.018;10.144;2022-11-20T14:21:49;100946.44;;;14.99;65.31
75886;BME280;64561;44.018;10.144;2022-11-20T14:24:23;100947.28;;;14.98;64.57
75886;BME280;64561;44.018;10.144;2022-11-20T14:26:51;100937.00;;;15.04;64.45
75886;BME280;64561;44.018;10.144;2022-11-20T14:29:21;100940.44;;;15.00;64.98
75886;BME280;64561;44.018;10.144;2022-11-20T14:31:52;100941.25;;;14.97;65.47
75886;BME280;64561;44.018;10.144;2022-11-20T14:34:23;100942.06;;;14.90;65.39
75886;BME280;64561;44.018;10.144;2022-11-20T14:36:57;100935.13;;;14.81;65.68
75886;BME280;64561;44.018;10.144;2022-11-20T14:39:30;100940.19;;;14.71;65.48